Wilson Lahn — 8PUO — position and weather

sailwx.info

Track history (hours):
 
Tides and Currents Weather Stations Pressure Air Temp Water Temp Dewpoint Dewpoint Depression Visibility Wind Speed Wind Dir Waves Ship Positions

Wilson Lahn

Last reported at 2014-Oct-29 20:30 UTC. Time now 2014-Oct-31 07:49 UTC.
Position N 51°52' E 005°49'.

Length 83 m; draft 3.5 m.

Type: Cargo ship. MMSI: 314259000.

Date/timePositionNaut miles runAvg speedWind from/ knotsBaromVisibWave heightAir tempDewpointWater temp
2014-Oct-29 20:30N 51°52' E 005°49'10 8.0
2014-Oct-29 19:14N 51°54' E 005°32'5 7.6
2014-Oct-29 18:33N 51°51' E 005°25'6 6.5
2014-Oct-29 17:33N 51°49' E 005°15'8 8.1
2014-Oct-29 16:33N 51°49' E 005°02'10 9.5
2014-Oct-29 15:33N 51°49' E 004°47'10 8.6
2014-Oct-29 14:21N 51°54' E 004°32'5 0.7
2014-Oct-29 07:33N 51°55' E 004°25'0 0.0
2014-Oct-29 06:30N 51°55' E 004°25'0 0.0
2014-Oct-29 04:09N 51°54' E 004°25'0 0.0
2014-Oct-29 02:33N 51°54' E 004°25'0 0.5
2014-Oct-29 01:33N 51°54' E 004°25'9 9.0
2014-Oct-29 00:33N 51°57' E 004°11'9 9.5
2014-Oct-28 23:33N 52°01' E 003°57'1010.1
2014-Oct-28 22:33N 52°09' E 003°47'1211.2
2014-Oct-28 21:31N 52°20' E 003°48'1010.2
2014-Oct-28 20:29N 52°31' E 003°52'9 9.6
2014-Oct-28 19:33N 52°39' E 003°55'9 9.1
2014-Oct-28 18:32N 52°48' E 003°58'9 8.8
2014-Oct-28 17:32N 52°57' E 004°01'10 9.1
2014-Oct-28 16:23N 53°04' E 004°14'1010.1
2014-Oct-28 15:27N 53°10' E 004°25'9 9.4
2014-Oct-28 14:31N 53°19' E 004°30'2510.4
2014-Oct-28 12:09N 53°42' E 004°41'17 9.7
2014-Oct-28 10:27N 53°59' E 004°47'9 9.7
2014-Oct-28 09:31N 54°08' E 004°49'9 9.3
2014-Oct-28 08:31N 54°17' E 004°54'282 6.3
2014-Oct-26 12:08N 58°58' E 004°51'3 5.3
2014-Oct-26 11:29N 59°02' E 004°50'  
2014-Oct-22 22:31N 66°17' E 012°14'1010.3
2014-Oct-22 21:33N 66°14' E 012°38'1 0.0
2014-Oct-20 20:09N 66°13' E 012°40'2 3.6
2014-Oct-20 19:32N 66°15' E 012°37'6 5.7
2014-Oct-20 18:32N 66°16' E 012°23'  
Track history (hours):
 
Tides and Currents Weather Stations Pressure Air Temp Water Temp Dewpoint Dewpoint Depression Visibility Wind Speed Wind Dir Waves Ship Positions

Wilson Lahn

Last reported at 2014-Oct-29 20:30 UTC. Time now 2014-Oct-31 07:49 UTC.
Position N 51°52' E 005°49'.

Length 83 m; draft 3.5 m.

Type: Cargo ship. MMSI: 314259000.

Date/timePositionNaut miles runAvg speedWind from/ knotsBaromVisibWave heightAir tempDewpointWater temp
2014-Oct-29 20:30N 51°52' E 005°49'10 8.0
2014-Oct-29 19:14N 51°54' E 005°32'5 7.6
2014-Oct-29 18:33N 51°51' E 005°25'6 6.5
2014-Oct-29 17:33N 51°49' E 005°15'8 8.1
2014-Oct-29 16:33N 51°49' E 005°02'10 9.5
2014-Oct-29 15:33N 51°49' E 004°47'10 8.6
2014-Oct-29 14:21N 51°54' E 004°32'5 0.7
2014-Oct-29 07:33N 51°55' E 004°25'0 0.0
2014-Oct-29 06:30N 51°55' E 004°25'0 0.0
2014-Oct-29 04:09N 51°54' E 004°25'0 0.0
2014-Oct-29 02:33N 51°54' E 004°25'0 0.5
2014-Oct-29 01:33N 51°54' E 004°25'9 9.0
2014-Oct-29 00:33N 51°57' E 004°11'9 9.5
2014-Oct-28 23:33N 52°01' E 003°57'1010.1
2014-Oct-28 22:33N 52°09' E 003°47'1211.2
2014-Oct-28 21:31N 52°20' E 003°48'1010.2
2014-Oct-28 20:29N 52°31' E 003°52'9 9.6
2014-Oct-28 19:33N 52°39' E 003°55'9 9.1
2014-Oct-28 18:32N 52°48' E 003°58'9 8.8
2014-Oct-28 17:32N 52°57' E 004°01'10 9.1
2014-Oct-28 16:23N 53°04' E 004°14'1010.1
2014-Oct-28 15:27N 53°10' E 004°25'9 9.4
2014-Oct-28 14:31N 53°19' E 004°30'2510.4
2014-Oct-28 12:09N 53°42' E 004°41'17 9.7
2014-Oct-28 10:27N 53°59' E 004°47'9 9.7
2014-Oct-28 09:31N 54°08' E 004°49'9 9.3
2014-Oct-28 08:31N 54°17' E 004°54'282 6.3
2014-Oct-26 12:08N 58°58' E 004°51'3 5.3
2014-Oct-26 11:29N 59°02' E 004°50'  
2014-Oct-22 22:31N 66°17' E 012°14'1010.3
2014-Oct-22 21:33N 66°14' E 012°38'1 0.0
2014-Oct-20 20:09N 66°13' E 012°40'2 3.6
2014-Oct-20 19:32N 66°15' E 012°37'6 5.7
2014-Oct-20 18:32N 66°16' E 012°23'  

Dump ship's entire track history